Terminal Aerodrome Forecast
Issued by NWS

Home | Current Version | Previous Version | Text Only | Print | Product List | Glossary On
Versions: 1 2 3 4 5 6 7 8 9 10 11 12 13 14 15 16 17 18 19 20 21 22 23 24 25 26 27 28 29 30 31 32
000
FTUS43 KSGF 222025 AAB
TAFJLN
TAF AMD
KJLN 222025Z 2220/2318 23012KT P6SM VCSH BKN028 OVC035
     FM230400 23005KT P6SM VCSH OVC018
     FM231200 01006KT 6SM SHRA BR OVC016 PROB30 2312/2315 4SM TS BR
      OVC009CB
     FM231500 02007KT 5SM SHRA BR OVC009=

USA.gov is the U.S. government's official web portal to all federal, state and local government web resources and services.